Time;durP1;ratioP1;P1;durP2;ratioP2;P2;SDS_P1;SDS_P2;PMS_P1;PMS_P2;Temp;Humidity;BMP_temperature;BMP_pressure;BME280_temperature;BME280_humidity;BME280_pressure;Samples;Min_cycle;Max_cycle;Signal;HPM_P1;HPM_P2
2023/07/18 00:01:46;;;;;;;5.05;3.55;;;14.30;99.90;;;;;;5034894;28;20464;-71
2023/07/18 00:04:11;;;;;;;5.90;3.63;;;14.30;99.90;;;;;;5052783;28;20059;-73
2023/07/18 00:06:40;;;;;;;7.63;3.35;;;14.30;99.90;;;;;;5053080;28;20056;-72
2023/07/18 00:09:06;;;;;;;6.88;4.00;;;14.30;99.90;;;;;;5035572;28;20053;-69
2023/07/18 00:11:31;;;;;;;4.45;3.22;;;14.20;99.90;;;;;;5053009;28;20060;-75
2023/07/18 00:13:58;;;;;;;4.78;3.08;;;14.20;99.90;;;;;;5053198;28;20037;-72
2023/07/18 00:16:24;;;;;;;6.45;2.75;;;14.10;99.90;;;;;;5052618;28;20596;-71
2023/07/18 00:18:50;;;;;;;5.40;3.45;;;14.10;99.90;;;;;;5052741;28;20061;-73
2023/07/18 00:21:16;;;;;;;6.20;3.60;;;14.10;99.90;;;;;;5034340;28;20455;-71
2023/07/18 00:23:42;;;;;;;5.65;2.80;;;14.00;99.90;;;;;;5052838;28;20060;-73
2023/07/18 00:26:08;;;;;;;7.10;3.53;;;14.00;99.90;;;;;;5034318;28;20041;-75
2023/07/18 00:28:34;;;;;;;5.35;3.35;;;14.00;99.90;;;;;;5052394;28;20095;-71
2023/07/18 00:31:02;;;;;;;6.50;3.22;;;14.00;99.90;;;;;;5034362;28;20045;-71
2023/07/18 00:33:28;;;;;;;6.82;3.53;;;14.00;99.90;;;;;;5052918;28;20120;-70
2023/07/18 00:35:54;;;;;;;4.38;3.25;;;13.90;99.90;;;;;;5052725;28;20558;-71
2023/07/18 00:38:20;;;;;;;6.70;3.80;;;13.90;99.90;;;;;;5052287;28;20071;-71
2023/07/18 00:40:49;;;;;;;4.15;2.70;;;13.90;99.90;;;;;;5052430;28;20099;-75
2023/07/18 00:43:15;;;;;;;8.00;3.42;;;13.90;99.90;;;;;;5052313;28;20366;-72
2023/07/18 00:45:42;;;;;;;6.28;4.47;;;13.90;99.90;;;;;;5034322;28;20045;-73
2023/07/18 00:48:09;;;;;;;6.07;3.53;;;13.90;99.90;;;;;;5052381;28;20045;-72
2023/07/18 00:50:36;;;;;;;11.30;4.68;;;13.90;99.90;;;;;;5052028;28;20099;-72
2023/07/18 00:53:02;;;;;;;6.40;3.92;;;13.90;99.90;;;;;;5052117;28;20049;-73
2023/07/18 00:55:28;;;;;;;5.80;3.63;;;13.90;99.90;;;;;;5052499;28;20041;-71
2023/07/18 00:57:55;;;;;;;5.10;3.40;;;13.90;99.90;;;;;;5034376;28;20049;-72
2023/07/18 01:00:22;;;;;;;5.30;3.85;;;13.90;99.90;;;;;;5035141;28;20079;-70
2023/07/18 01:02:49;;;;;;;9.68;4.00;;;13.90;99.90;;;;;;5034056;28;20090;-70
2023/07/18 01:05:18;;;;;;;7.65;4.43;;;13.90;99.90;;;;;;5051964;28;20056;-69
2023/07/18 01:07:45;;;;;;;7.20;3.65;;;13.90;99.90;;;;;;5051941;28;20049;-72
2023/07/18 01:10:23;;;;;;;5.15;3.83;;;13.90;99.90;;;;;;5034425;28;20367;-73
2023/07/18 01:12:52;;;;;;;10.63;5.57;;;13.90;99.90;;;;;;5052396;28;20049;-69
2023/07/18 01:15:20;;;;;;;7.25;3.83;;;13.90;99.90;;;;;;5051809;28;20045;-71
2023/07/18 01:17:46;;;;;;;5.43;3.40;;;13.90;99.90;;;;;;5051947;28;20121;-70
2023/07/18 01:20:19;;;;;;;6.00;3.75;;;13.90;99.90;;;;;;5018017;28;20050;-73
2023/07/18 01:22:47;;;;;;;5.47;3.45;;;13.80;99.90;;;;;;5052196;28;20055;-72
2023/07/18 01:25:16;;;;;;;7.10;4.20;;;13.80;99.90;;;;;;5051736;28;20062;-71
2023/07/18 01:27:43;;;;;;;4.20;3.70;;;13.80;99.90;;;;;;5051875;28;20104;-72
2023/07/18 01:30:10;;;;;;;4.78;3.17;;;13.70;99.90;;;;;;5051581;28;20081;-71
2023/07/18 01:32:35;;;;;;;8.95;3.92;;;13.70;99.90;;;;;;5051751;28;20497;-70
2023/07/18 01:35:05;;;;;;;5.35;3.78;;;13.70;99.90;;;;;;5051713;28;20064;-71
2023/07/18 01:37:32;;;;;;;4.72;3.38;;;13.60;99.90;;;;;;5034243;28;20115;-70
2023/07/18 01:39:59;;;;;;;7.65;4.10;;;13.60;99.90;;;;;;5053693;28;20052;-71
2023/07/18 01:42:25;;;;;;;5.43;4.07;;;13.60;99.90;;;;;;5055180;28;20057;-72
2023/07/18 01:44:50;;;;;;;8.65;3.83;;;13.60;99.90;;;;;;5055575;28;20048;-71
2023/07/18 01:47:16;;;;;;;8.65;3.80;;;13.50;99.90;;;;;;5037463;28;20045;-70
2023/07/18 01:49:41;;;;;;;10.75;4.68;;;13.50;99.90;;;;;;5055165;28;20037;-72
2023/07/18 01:52:07;;;;;;;8.02;3.78;;;13.50;99.90;;;;;;5055737;28;20505;-73
2023/07/18 01:54:33;;;;;;;9.57;5.00;;;13.50;99.90;;;;;;5055067;28;20433;-70
2023/07/18 01:56:59;;;;;;;7.65;4.03;;;13.50;99.90;;;;;;5055074;28;20084;-72
2023/07/18 01:59:25;;;;;;;7.53;4.13;;;13.50;99.90;;;;;;5055503;28;20107;-71
2023/07/18 02:01:51;;;;;;;5.40;3.28;;;13.50;99.90;;;;;;5055043;28;20549;-71
2023/07/18 02:04:18;;;;;;;6.70;3.72;;;13.50;99.90;;;;;;5037268;28;20133;-74
2023/07/18 02:06:43;;;;;;;6.30;3.72;;;13.60;99.90;;;;;;5054724;28;20045;-73
2023/07/18 02:09:10;;;;;;;5.80;3.63;;;13.50;99.90;;;;;;5054697;28;20049;-70
2023/07/18 02:11:35;;;;;;;7.93;4.57;;;13.50;99.90;;;;;;5054684;28;20068;-72
2023/07/18 02:14:04;;;;;;;6.78;4.10;;;13.50;99.90;;;;;;5054701;28;20045;-70
2023/07/18 02:16:30;;;;;;;6.43;4.18;;;13.50;99.90;;;;;;5055079;28;20088;-71
2023/07/18 02:19:01;;;;;;;9.77;4.78;;;13.50;99.90;;;;;;5054975;28;20179;-71
2023/07/18 02:21:28;;;;;;;6.30;4.03;;;13.50;99.90;;;;;;5054211;28;20512;-73
2023/07/18 02:23:53;;;;;;;5.28;3.58;;;13.50;99.90;;;;;;5054716;28;20095;-71
2023/07/18 02:26:19;;;;;;;6.05;4.22;;;13.60;99.90;;;;;;5037446;28;20051;-72
2023/07/18 02:28:45;;;;;;;6.93;4.00;;;13.60;99.90;;;;;;5054191;28;20041;-72
2023/07/18 02:31:10;;;;;;;6.90;5.10;;;13.60;99.90;;;;;;5036581;28;20480;-73
2023/07/18 02:33:36;;;;;;;9.48;3.97;;;13.60;99.90;;;;;;5054063;28;20077;-73
2023/07/18 02:36:03;;;;;;;8.95;4.13;;;13.60;99.90;;;;;;5054714;28;20045;-74
2023/07/18 02:38:28;;;;;;;10.20;4.70;;;13.70;99.90;;;;;;5054466;28;20122;-71
2023/07/18 02:40:54;;;;;;;11.43;5.53;;;13.70;99.90;;;;;;5054580;28;20446;-71
2023/07/18 02:43:20;;;;;;;9.70;4.47;;;13.70;99.90;;;;;;5054574;28;20045;-71
2023/07/18 02:45:45;;;;;;;6.32;4.43;;;13.70;99.90;;;;;;5054269;28;20041;-70
2023/07/18 02:48:11;;;;;;;7.85;3.88;;;13.70;99.90;;;;;;5036271;28;20044;-69
2023/07/18 02:50:36;;;;;;;8.40;4.60;;;13.70;99.90;;;;;;5053799;28;20495;-70
2023/07/18 02:53:03;;;;;;;5.57;3.70;;;13.60;99.90;;;;;;5053707;28;20486;-73
2023/07/18 02:55:28;;;;;;;8.35;5.45;;;13.60;99.90;;;;;;5053487;28;20048;-70
2023/07/18 02:57:54;;;;;;;6.30;3.88;;;13.60;99.90;;;;;;5054430;28;20051;-70
2023/07/18 03:00:25;;;;;;;5.38;3.85;;;13.50;99.90;;;;;;5053796;28;20063;-70
2023/07/18 03:02:52;;;;;;;5.22;3.97;;;13.60;99.90;;;;;;5036923;28;20053;-73
2023/07/18 03:05:19;;;;;;;6.43;4.10;;;13.50;99.90;;;;;;5037020;28;20053;-71
2023/07/18 03:07:48;;;;;;;4.40;3.90;;;13.50;99.90;;;;;;5053924;28;20476;-71
2023/07/18 03:10:14;;;;;;;7.30;5.10;;;13.50;99.90;;;;;;5054033;28;20041;-75
2023/07/18 03:12:42;;;;;;;9.93;3.47;;;13.50;99.90;;;;;;5053565;28;20045;-71
2023/07/18 03:15:11;;;;;;;9.15;4.15;;;13.50;99.90;;;;;;5053857;28;20056;-72
2023/07/18 03:17:37;;;;;;;7.05;4.20;;;13.50;99.90;;;;;;5053573;28;20045;-75
2023/07/18 03:20:16;;;;;;;9.07;4.68;;;13.50;99.90;;;;;;5036092;28;20079;-72
2023/07/18 03:22:44;;;;;;;7.35;3.97;;;13.40;99.90;;;;;;5053660;28;20041;-74
2023/07/18 03:25:10;;;;;;;11.65;4.55;;;13.50;99.90;;;;;;5035906;28;20049;-70
2023/07/18 03:27:35;;;;;;;7.93;4.57;;;13.50;99.90;;;;;;5036067;28;20080;-70
2023/07/18 03:30:01;;;;;;;6.53;4.32;;;13.50;99.90;;;;;;5053145;28;20084;-70
2023/07/18 03:32:27;;;;;;;8.10;4.28;;;13.50;99.90;;;;;;5035656;28;20040;-74
2023/07/18 03:34:52;;;;;;;6.70;4.28;;;13.50;99.90;;;;;;5053132;28;20057;-73
2023/07/18 03:37:18;;;;;;;6.30;4.10;;;13.50;99.90;;;;;;5053015;28;20130;-73
2023/07/18 03:39:44;;;;;;;8.00;4.43;;;13.50;99.90;;;;;;5053504;28;20055;-72
2023/07/18 03:42:09;;;;;;;6.72;4.63;;;13.50;99.90;;;;;;5053051;28;20500;-72
2023/07/18 03:44:35;;;;;;;7.50;4.78;;;13.40;99.90;;;;;;5052972;28;20520;-70
2023/07/18 03:47:01;;;;;;;8.00;4.43;;;13.50;99.90;;;;;;5035470;28;20118;-71
2023/07/18 03:49:27;;;;;;;7.60;4.25;;;13.50;99.90;;;;;;5035350;28;20132;-70
2023/07/18 03:51:52;;;;;;;7.53;4.20;;;13.50;99.90;;;;;;5052764;28;20064;-72
2023/07/18 03:54:18;;;;;;;5.70;3.88;;;13.50;99.90;;;;;;5034750;28;20041;-74
2023/07/18 03:56:44;;;;;;;9.63;4.70;;;13.50;99.90;;;;;;5052740;28;20052;-72
2023/07/18 03:59:09;;;;;;;5.93;3.97;;;13.50;99.90;;;;;;5053074;28;20463;-72
2023/07/18 04:01:35;;;;;;;9.50;4.97;;;13.50;99.90;;;;;;5052255;28;20117;-70
2023/07/18 04:04:01;;;;;;;6.75;4.32;;;13.50;99.90;;;;;;5052374;28;20053;-73
2023/07/18 04:06:26;;;;;;;8.95;4.93;;;13.50;99.90;;;;;;5052756;28;20564;-71
2023/07/18 04:08:53;;;;;;;9.32;4.88;;;13.50;99.90;;;;;;5034565;28;20490;-72
2023/07/18 04:11:19;;;;;;;5.82;3.90;;;13.50;99.90;;;;;;5052368;28;20515;-72
2023/07/18 04:13:45;;;;;;;10.00;5.90;;;13.60;99.90;;;;;;5052478;28;20041;-73
2023/07/18 04:16:11;;;;;;;10.18;5.60;;;13.60;99.90;;;;;;5034658;28;20128;-71
2023/07/18 04:18:37;;;;;;;9.73;4.85;;;13.60;99.90;;;;;;5052846;28;20049;-74
2023/07/18 04:21:03;;;;;;;7.57;4.55;;;13.60;99.90;;;;;;5052209;28;20056;-72
2023/07/18 04:23:29;;;;;;;7.88;5.22;;;13.60;99.90;;;;;;5052527;28;20102;-70
2023/07/18 04:26:03;;;;;;;5.82;3.80;;;13.70;99.90;;;;;;5052216;28;20041;-73
2023/07/18 04:28:32;;;;;;;;;;;13.70;99.90;;;;;;5052771;28;20056;-72
2023/07/18 04:30:58;;;;;;;11.35;5.65;;;13.70;99.90;;;;;;5052218;28;19921;-72
2023/07/18 04:33:24;;;;;;;6.47;3.13;;;13.70;99.90;;;;;;5034405;28;20052;-73
2023/07/18 04:35:50;;;;;;;7.72;4.35;;;13.80;99.90;;;;;;5018307;28;20057;-72
2023/07/18 04:38:16;;;;;;;8.50;5.57;;;13.90;99.90;;;;;;5034618;28;20044;-71
2023/07/18 04:40:42;;;;;;;11.85;6.55;;;13.90;99.90;;;;;;5052180;28;20438;-71
2023/07/18 04:43:08;;;;;;;9.63;5.53;;;13.90;99.90;;;;;;5018898;28;20084;-73
2023/07/18 04:45:41;;;;;;;6.50;4.55;;;14.00;99.90;;;;;;5034571;28;20040;-76
2023/07/18 04:48:06;;;;;;;8.13;5.28;;;14.10;99.90;;;;;;5052186;28;20048;-72
2023/07/18 04:50:32;;;;;;;6.97;4.28;;;14.20;99.90;;;;;;5052344;28;20048;-73
2023/07/18 04:52:58;;;;;;;9.88;4.68;;;14.20;99.90;;;;;;5034435;28;20041;-71
2023/07/18 04:55:25;;;;;;;6.60;4.88;;;14.30;99.90;;;;;;5052014;28;20041;-75
2023/07/18 04:57:51;;;;;;;7.22;4.32;;;14.30;99.90;;;;;;5052100;28;20091;-75
2023/07/18 05:00:17;;;;;;;6.80;4.30;;;14.30;99.90;;;;;;5034262;28;20045;-74
2023/07/18 05:02:43;;;;;;;5.35;3.90;;;14.40;99.90;;;;;;5034574;28;20402;-76
2023/07/18 05:05:09;;;;;;;8.98;5.10;;;14.40;99.90;;;;;;5052426;28;20045;-75
2023/07/18 05:07:34;;;;;;;10.63;5.43;;;14.50;99.90;;;;;;5035160;28;20056;-77
2023/07/18 05:10:00;;;;;;;8.80;5.22;;;14.50;99.90;;;;;;5052169;28;20083;-72
2023/07/18 05:12:26;;;;;;;7.45;5.40;;;14.50;99.90;;;;;;5051859;28;20052;-70
2023/07/18 05:14:51;;;;;;;7.53;4.88;;;14.60;99.90;;;;;;5053860;28;20053;-71
2023/07/18 05:17:17;;;;;;;7.60;4.60;;;14.60;99.90;;;;;;5055789;28;20387;-71
2023/07/18 05:19:43;;;;;;;9.70;4.88;;;14.60;99.90;;;;;;5055751;28;20043;-73
2023/07/18 05:22:09;;;;;;;7.40;4.57;;;14.60;99.90;;;;;;5055821;28;20050;-69
2023/07/18 05:24:35;;;;;;;7.85;4.68;;;14.70;99.90;;;;;;5055284;28;20056;-70
2023/07/18 05:27:00;;;;;;;7.95;4.07;;;14.80;99.90;;;;;;5037825;28;20075;-71
2023/07/18 05:29:26;;;;;;;6.70;4.43;;;14.90;99.90;;;;;;5055571;28;20076;-70
2023/07/18 05:31:52;;;;;;;10.75;5.85;;;15.00;99.90;;;;;;5055539;28;20060;-72
2023/07/18 05:34:17;;;;;;;8.57;4.90;;;15.20;99.90;;;;;;5055433;28;20080;-71
2023/07/18 05:36:43;;;;;;;9.32;4.53;;;15.30;99.90;;;;;;5038350;28;20049;-70
2023/07/18 05:39:09;;;;;;;11.07;5.35;;;15.50;99.90;;;;;;5055474;28;20045;-71
2023/07/18 05:41:34;;;;;;;9.55;4.65;;;15.80;99.90;;;;;;5055307;28;20127;-71
2023/07/18 05:44:00;;;;;;;10.27;5.57;;;15.90;99.90;;;;;;5037580;28;20369;-70
2023/07/18 05:46:26;;;;;;;10.00;5.68;;;16.10;99.90;;;;;;5037890;28;20084;-70
2023/07/18 05:48:51;;;;;;;13.05;4.75;;;16.20;99.90;;;;;;5037259;28;20048;-69
2023/07/18 05:51:18;;;;;;;6.90;4.68;;;16.30;99.90;;;;;;5037435;28;20106;-71
2023/07/18 05:53:44;;;;;;;11.23;5.22;;;16.30;99.90;;;;;;5055521;28;20231;-69
2023/07/18 05:56:10;;;;;;;7.45;4.40;;;16.30;99.90;;;;;;5055706;28;20171;-70
2023/07/18 05:58:35;;;;;;;5.88;4.95;;;16.40;99.90;;;;;;5055015;28;20532;-69
2023/07/18 06:01:01;;;;;;;10.25;5.03;;;16.40;99.90;;;;;;5055088;28;20032;-69
2023/07/18 06:03:28;;;;;;;11.27;4.38;;;16.50;99.90;;;;;;5037151;28;20148;-71
2023/07/18 06:05:54;;;;;;;8.27;5.35;;;16.50;99.90;;;;;;5037525;28;20395;-71
2023/07/18 06:08:21;;;;;;;11.73;5.80;;;16.40;99.90;;;;;;5055318;28;20045;-70
2023/07/18 06:10:47;;;;;;;8.85;5.13;;;16.40;99.90;;;;;;5037067;28;20045;-71
2023/07/18 06:13:13;;;;;;;8.20;4.82;;;16.50;99.90;;;;;;5054426;28;20055;-70
2023/07/18 06:15:39;;;;;;;8.55;4.57;;;16.70;99.90;;;;;;5054391;28;20044;-71
2023/07/18 06:18:04;;;;;;;8.35;5.00;;;17.00;99.90;;;;;;5054369;28;20124;-69
2023/07/18 06:20:32;;;;;;;10.60;4.43;;;17.30;99.90;;;;;;5036542;28;20049;-70
2023/07/18 06:22:59;;;;;;;7.65;4.28;;;17.50;99.90;;;;;;5036941;28;20504;-71
2023/07/18 06:25:25;;;;;;;11.50;5.55;;;17.70;99.90;;;;;;5036325;28;20428;-70
2023/07/18 06:27:50;;;;;;;7.65;4.40;;;17.80;99.90;;;;;;5054329;28;20088;-70
2023/07/18 06:30:17;;;;;;;5.38;4.20;;;18.00;99.90;;;;;;5037042;28;20049;-70
2023/07/18 06:32:42;;;;;;;8.00;5.05;;;18.10;99.90;;;;;;5054614;28;20087;-71
2023/07/18 06:35:10;;;;;;;8.88;4.88;;;18.30;99.90;;;;;;5054238;28;20374;-70
2023/07/18 06:37:36;;;;;;;15.13;4.85;;;18.40;99.90;;;;;;5054360;28;20053;-70
2023/07/18 06:40:02;;;;;;;6.15;4.30;;;18.40;99.90;;;;;;5054019;28;20469;-71
2023/07/18 06:42:28;;;;;;;5.78;4.25;;;18.70;99.90;;;;;;5053917;28;20504;-70
2023/07/18 06:44:54;;;;;;;11.57;4.55;;;19.70;99.90;;;;;;5054373;28;20060;-70
2023/07/18 06:47:19;;;;;;;7.75;4.30;;;21.00;99.90;;;;;;5053694;28;20041;-71
2023/07/18 06:49:45;;;;;;;6.05;4.18;;;22.00;99.90;;;;;;5036769;28;20045;-72
2023/07/18 06:52:11;;;;;;;11.07;4.55;;;22.10;99.90;;;;;;5055109;28;20071;-69
2023/07/18 06:54:36;;;;;;;17.17;5.43;;;21.80;99.90;;;;;;5054786;28;20405;-70
2023/07/18 06:57:02;;;;;;;9.93;4.00;;;21.10;99.90;;;;;;5055935;28;20056;-72
2023/07/18 06:59:28;;;;;;;9.38;4.35;;;20.80;99.90;;;;;;5055288;28;20171;-72
2023/07/18 07:01:53;;;;;;;12.10;4.70;;;20.40;99.90;;;;;;5053991;28;20045;-71
2023/07/18 07:04:19;;;;;;;10.32;4.57;;;20.20;99.90;;;;;;5035645;28;20133;-69
2023/07/18 07:06:45;;;;;;;8.05;3.75;;;20.20;99.90;;;;;;5053548;28;20075;-71
2023/07/18 07:09:13;;;;;;;6.30;3.70;;;20.40;99.90;;;;;;5053521;28;20057;-73
2023/07/18 07:11:40;;;;;;;8.95;4.15;;;20.80;99.90;;;;;;5036030;28;20045;-70
2023/07/18 07:14:06;;;;;;;6.47;3.47;;;21.80;99.90;;;;;;5054001;28;20390;-70
2023/07/18 07:16:34;;;;;;;8.35;4.07;;;22.50;99.90;;;;;;5036166;28;20045;-71
2023/07/18 07:19:00;;;;;;;7.60;3.30;;;22.40;99.90;;;;;;5053365;28;20049;-70
2023/07/18 07:21:27;;;;;;;8.02;3.47;;;22.60;99.90;;;;;;5053384;28;20124;-71
2023/07/18 07:23:53;;;;;;;9.07;3.40;;;23.40;99.90;;;;;;5052526;28;20526;-73
2023/07/18 07:26:19;;;;;;;7.88;3.60;;;24.10;99.90;;;;;;5053210;28;20128;-70
2023/07/18 07:28:45;;;;;;;8.55;3.53;;;24.50;99.90;;;;;;5053206;28;20045;-70
2023/07/18 07:31:12;;;;;;;7.22;3.85;;;24.50;99.90;;;;;;5052981;28;20120;-70
2023/07/18 07:33:37;;;;;;;13.23;4.68;;;25.20;99.90;;;;;;5035714;28;20094;-70
2023/07/18 07:36:04;;;;;;;7.45;3.17;;;25.20;99.70;;;;;;5052617;28;20432;-68
2023/07/18 07:38:30;;;;;;;6.43;2.88;;;25.70;99.80;;;;;;5052388;28;20056;-68
2023/07/18 07:40:56;;;;;;;10.23;3.35;;;26.60;99.10;;;;;;5052875;28;20044;-70
2023/07/18 07:43:21;;;;;;;6.28;2.75;;;26.90;98.20;;;;;;5035242;28;20045;-74
2023/07/18 07:45:47;;;;;;;9.95;3.50;;;27.50;97.50;;;;;;5035058;28;20089;-74
2023/07/18 07:48:13;;;;;;;8.32;3.30;;;27.50;97.30;;;;;;5052782;28;20048;-71
2023/07/18 07:50:38;;;;;;;7.70;4.07;;;27.90;96.90;;;;;;5052580;28;20183;-73
2023/07/18 07:53:04;;;;;;;15.55;3.47;;;28.30;96.40;;;;;;5053162;28;20045;-71
2023/07/18 07:55:30;;;;;;;6.72;3.20;;;28.70;96.10;;;;;;5052731;28;20041;-71
2023/07/18 07:57:56;;;;;;;9.82;4.13;;;28.80;95.90;;;;;;5034907;28;20178;-72
2023/07/18 08:00:22;;;;;;;8.10;2.90;;;28.70;95.00;;;;;;5052581;28;20056;-72
2023/07/18 08:02:47;;;;;;;6.88;2.88;;;28.70;95.20;;;;;;5052793;28;20045;-73
2023/07/18 08:05:13;;;;;;;6.00;3.15;;;28.70;95.00;;;;;;5052549;28;20377;-71
2023/07/18 08:07:40;;;;;;;6.47;2.75;;;28.20;94.90;;;;;;5053026;28;20088;-72
2023/07/18 08:10:06;;;;;;;5.47;2.85;;;28.10;94.70;;;;;;5034897;28;20531;-70
2023/07/18 08:12:31;;;;;;;9.52;2.90;;;27.80;94.80;;;;;;5052901;28;20048;-73
2023/07/18 08:14:57;;;;;;;6.30;2.97;;;27.80;94.60;;;;;;5052558;28;20498;-73
2023/07/18 08:17:23;;;;;;;9.43;3.30;;;27.50;94.50;;;;;;5052416;28;20056;-75
2023/07/18 08:19:49;;;;;;;9.40;3.20;;;27.10;95.00;;;;;;5052388;28;20051;-73
2023/07/18 08:22:14;;;;;;;9.07;2.95;;;26.80;94.90;;;;;;5052441;28;20510;-72
2023/07/18 08:24:40;;;;;;;6.70;2.80;;;26.30;94.80;;;;;;5052703;28;20120;-73
2023/07/18 08:27:06;;;;;;;5.13;2.67;;;26.50;94.70;;;;;;5052370;28;20044;-70
2023/07/18 08:29:33;;;;;;;8.63;3.13;;;26.80;94.30;;;;;;5034841;28;20044;-72
2023/07/18 08:31:59;;;;;;;3.67;2.40;;;26.70;94.30;;;;;;5052166;28;20048;-73
2023/07/18 08:34:25;;;;;;;6.55;2.45;;;26.60;93.80;;;;;;5052474;28;20041;-71
2023/07/18 08:36:51;;;;;;;4.70;2.35;;;26.50;94.00;;;;;;5052794;28;20063;-71
2023/07/18 08:39:17;;;;;;;8.18;2.53;;;26.60;93.60;;;;;;5052000;28;20469;-71
2023/07/18 08:41:44;;;;;;;5.35;2.92;;;26.80;93.50;;;;;;5052130;28;20458;-68
2023/07/18 08:44:15;;;;;;;6.50;3.55;;;26.40;93.00;;;;;;5052030;28;20053;-68
2023/07/18 08:46:42;;;;;;;10.00;2.70;;;25.80;92.90;;;;;;5052752;28;20049;-68
2023/07/18 08:49:10;;;;;;;7.28;2.97;;;25.60;93.70;;;;;;5054629;28;20045;-68
2023/07/18 08:51:36;;;;;;;8.82;3.05;;;25.70;94.00;;;;;;5055984;28;20121;-67
2023/07/18 08:54:02;;;;;;;4.18;2.15;;;25.60;94.10;;;;;;5056146;28;20088;-73
2023/07/18 08:56:28;;;;;;;4.72;1.90;;;26.10;93.90;;;;;;5056041;28;20091;-72
2023/07/18 08:58:55;;;;;;;4.32;2.42;;;26.70;93.50;;;;;;5056431;28;20049;-71
2023/07/18 09:01:21;;;;;;;5.20;2.15;;;27.30;93.40;;;;;;5021853;28;20470;-70
2023/07/18 09:03:47;;;;;;;3.03;2.28;;;28.00;93.50;;;;;;5038086;28;20124;-73
2023/07/18 09:06:18;;;;;;;4.38;2.13;;;28.40;92.80;;;;;;5056196;28;20053;-72
2023/07/18 09:08:44;;;;;;;10.05;3.63;;;28.50;90.80;;;;;;5038667;28;20077;-71
2023/07/18 09:11:12;;;;;;;11.88;2.58;;;28.20;92.10;;;;;;5055925;28;20549;-71
2023/07/18 09:13:39;;;;;;;3.90;2.08;;;27.90;92.10;;;;;;5056215;28;20099;-71
2023/07/18 09:16:31;;;;;;;5.10;2.08;;;28.10;92.10;;;;;;5056225;28;20053;-71
2023/07/18 09:18:57;;;;;;;4.05;2.17;;;28.80;91.10;;;;;;5033993;28;20067;-70
2023/07/18 09:21:23;;;;;;;5.28;2.50;;;28.50;91.80;;;;;;5022274;28;20476;-73
2023/07/18 09:23:50;;;;;;;4.53;2.38;;;28.10;91.60;;;;;;5055764;28;20044;-71
2023/07/18 09:26:22;;;;;;;5.35;2.33;;;28.20;91.90;;;;;;5055621;28;20120;-71
2023/07/18 09:28:49;;;;;;;7.68;2.65;;;28.60;91.40;;;;;;5055632;28;20044;-72
2023/07/18 09:31:18;;;;;;;5.65;3.17;;;28.50;91.70;;;;;;5055738;28;20087;-71
2023/07/18 09:33:49;;;;;;;7.22;2.60;;;27.60;91.40;;;;;;5055558;28;20106;-71
2023/07/18 09:36:20;;;;;;;6.00;2.35;;;27.20;92.10;;;;;;5037982;28;20099;-70
2023/07/18 09:38:47;;;;;;;7.70;2.80;;;27.60;92.00;;;;;;5055538;28;20044;-71
2023/07/18 09:41:20;;;;;;;5.80;2.97;;;28.20;92.20;;;;;;5037735;28;20060;-71
2023/07/18 09:43:46;;;;;;;7.70;2.65;;;28.30;92.50;;;;;;5055478;28;20049;-72
2023/07/18 09:46:13;;;;;;;6.60;2.45;;;28.00;92.40;;;;;;5037607;28;20057;-72
2023/07/18 09:48:40;;;;;;;5.57;2.95;;;28.00;92.50;;;;;;5037631;28;20067;-70
2023/07/18 09:51:13;;;;;;;8.88;2.08;;;27.80;92.40;;;;;;5055137;28;20125;-74
2023/07/18 09:53:40;;;;;;;6.53;2.28;;;27.50;92.10;;;;;;5055154;28;20045;-71
2023/07/18 09:56:08;;;;;;;8.15;2.45;;;26.90;91.90;;;;;;5055549;28;20049;-70
2023/07/18 09:58:39;;;;;;;8.27;2.38;;;26.90;92.60;;;;;;5054897;28;20058;-71
2023/07/18 10:01:11;;;;;;;7.88;2.65;;;26.70;92.30;;;;;;5036847;28;20053;-71
2023/07/18 10:03:39;;;;;;;7.68;2.55;;;26.70;92.60;;;;;;5054803;28;20136;-72
2023/07/18 10:06:06;;;;;;;4.13;2.13;;;27.20;92.70;;;;;;5020769;28;20434;-73
2023/07/18 10:08:32;;;;;;;4.55;2.03;;;27.60;92.50;;;;;;5037603;28;20434;-74
2023/07/18 10:11:07;;;;;;;6.65;2.40;;;27.90;92.50;;;;;;5054434;28;20469;-69
2023/07/18 10:13:43;;;;;;;4.57;2.53;;;28.00;91.70;;;;;;5055211;28;20064;-68
2023/07/18 10:16:12;;;;;;;3.45;2.60;;;28.00;91.10;;;;;;5054525;28;20052;-68
2023/07/18 10:19:18;;;;;;;9.73;2.92;;;28.10;91.70;;;;;;5054608;28;20055;-73
2023/07/18 10:21:46;;;;;;;5.65;2.25;;;28.10;90.70;;;;;;5031626;28;20056;-72
2023/07/18 10:24:31;;;;;;;6.45;2.40;;;28.50;91.80;;;;;;5036923;28;20060;-74
2023/07/18 10:27:00;;;;;;;2.00;1.75;;;28.70;90.20;;;;;;5054533;28;20053;-73
2023/07/18 10:29:31;;;;;;;3.78;2.00;;;28.70;90.40;;;;;;5036985;28;20045;-72
2023/07/18 10:31:59;;;;;;;5.10;1.75;;;28.80;90.50;;;;;;5054178;28;20064;-73
2023/07/18 10:34:25;;;;;;;6.90;2.28;;;28.90;90.80;;;;;;5054208;28;20057;-71
2023/07/18 10:37:04;;;;;;;3.83;2.42;;;28.90;90.50;;;;;;5054279;28;20049;-71
2023/07/18 10:39:43;;;;;;;4.68;1.80;;;28.50;88.00;;;;;;5056549;28;20045;-73
2023/07/18 10:42:09;;;;;;;5.18;1.60;;;28.70;90.00;;;;;;5037763;28;20037;-73
2023/07/18 10:44:39;;;;;;;3.30;1.60;;;28.90;90.10;;;;;;5054367;28;20051;-74
2023/07/18 10:47:12;;;;;;;2.58;1.70;;;28.80;89.90;;;;;;5036662;28;20122;-74
2023/07/18 10:49:38;;;;;;;7.40;1.65;;;28.40;87.70;;;;;;5054009;28;20125;-74
2023/07/18 10:52:04;;;;;;;3.22;1.90;;;28.10;88.90;;;;;;5053761;28;20045;-71
2023/07/18 10:54:30;;;;;;;5.13;1.80;;;27.80;89.30;;;;;;5053927;28;20064;-73
2023/07/18 10:56:56;;;;;;;4.38;1.35;;;27.40;89.70;;;;;;5053742;28;20045;-75
2023/07/18 10:59:22;;;;;;;5.70;1.60;;;27.40;90.00;;;;;;5053475;28;20473;-71
2023/07/18 11:01:47;;;;;;;3.95;1.52;;;27.60;89.60;;;;;;5036047;28;20039;-70
2023/07/18 11:04:13;;;;;;;3.28;1.70;;;27.90;89.30;;;;;;5053224;28;20061;-73
2023/07/18 11:06:49;;;;;;;4.53;1.80;;;28.20;90.10;;;;;;5036105;28;20097;-71
2023/07/18 11:09:15;;;;;;;3.58;2.25;;;28.00;86.30;;;;;;5053532;28;20102;-70
2023/07/18 11:11:41;;;;;;;5.93;1.70;;;27.80;88.90;;;;;;5053415;28;20037;-72
2023/07/18 11:14:07;;;;;;;3.20;1.63;;;28.00;89.90;;;;;;5053419;28;20040;-73
2023/07/18 11:16:33;;;;;;;4.47;1.98;;;28.10;88.90;;;;;;5053809;28;20060;-72
2023/07/18 11:19:02;;;;;;;4.75;1.50;;;28.30;89.00;;;;;;5053242;28;20120;-71
2023/07/18 11:21:28;;;;;;;6.22;1.58;;;28.50;87.30;;;;;;5035416;28;20534;-71
2023/07/18 11:23:54;;;;;;;5.50;1.60;;;28.40;86.70;;;;;;5035587;28;20045;-70
2023/07/18 11:26:20;;;;;;;5.47;1.33;;;28.30;87.70;;;;;;5053070;28;20106;-72
2023/07/18 11:28:50;;;;;;;1.90;1.60;;;28.20;87.80;;;;;;5035463;28;20041;-71
2023/07/18 11:31:30;;;;;;;6.15;1.70;;;28.10;87.00;;;;;;5018680;28;20049;-67
2023/07/18 11:34:00;;;;;;;5.18;1.52;;;28.10;86.30;;;;;;5052982;28;20045;-67
2023/07/18 11:36:36;;;;;;;4.78;1.70;;;28.20;87.90;;;;;;5053034;28;20053;-69
2023/07/18 11:39:05;;;;;;;5.18;1.48;;;28.10;86.20;;;;;;5053047;28;20048;-72
2023/07/18 11:41:38;;;;;;;4.50;1.83;;;27.90;87.00;;;;;;5053134;28;20049;-71
2023/07/18 11:44:05;;;;;;;3.83;1.57;;;27.50;87.40;;;;;;5053306;28;20045;-71
2023/07/18 11:46:41;;;;;;;2.92;1.70;;;27.20;88.10;;;;;;5018906;28;20562;-70
2023/07/18 11:49:08;;;;;;;3.50;1.55;;;26.90;87.60;;;;;;5052633;28;20045;-70
2023/07/18 11:51:35;;;;;;;3.83;1.70;;;26.70;88.60;;;;;;5019133;28;20106;-71
2023/07/18 11:54:02;;;;;;;3.00;1.40;;;26.50;89.00;;;;;;5053105;28;20087;-70
2023/07/18 11:56:29;;;;;;;2.05;1.70;;;26.20;89.50;;;;;;5052556;28;20041;-73
2023/07/18 11:58:54;;;;;;;2.92;1.73;;;26.00;89.90;;;;;;5052498;28;20045;-71
2023/07/18 12:01:20;;;;;;;2.00;1.75;;;25.30;89.30;;;;;;5052983;28;20615;-71
2023/07/18 12:03:46;;;;;;;4.50;1.73;;;25.40;90.40;;;;;;5052394;28;20486;-70
2023/07/18 12:06:12;;;;;;;5.50;2.53;;;25.20;90.40;;;;;;5052760;28;20056;-70
2023/07/18 12:08:37;;;;;;;5.93;1.88;;;25.00;90.50;;;;;;5052494;28;20053;-71
2023/07/18 12:11:04;;;;;;;5.53;2.47;;;24.60;90.80;;;;;;5034495;28;20183;-70
2023/07/18 12:13:30;;;;;;;5.30;2.08;;;24.50;91.40;;;;;;5052391;28;20053;-70
2023/07/18 12:15:59;;;;;;;3.70;2.08;;;24.20;91.70;;;;;;5052607;28;20056;-71
2023/07/18 12:18:24;;;;;;;3.75;2.38;;;24.20;92.30;;;;;;5052250;28;20045;-70
2023/07/18 12:20:52;;;;;;;4.38;2.03;;;24.10;92.10;;;;;;5035169;28;20060;-69
2023/07/18 12:23:18;;;;;;;4.38;2.25;;;24.00;92.40;;;;;;5051834;28;20508;-71
2023/07/18 12:25:43;;;;;;;6.35;2.22;;;24.10;92.60;;;;;;5052896;28;20048;-70
2023/07/18 12:28:09;;;;;;;5.20;2.10;;;24.10;92.20;;;;;;5052143;28;20561;-69
2023/07/18 12:30:35;;;;;;;5.30;2.10;;;24.20;92.90;;;;;;5051970;28;20438;-71
2023/07/18 12:33:00;;;;;;;6.18;2.05;;;24.30;92.80;;;;;;5034611;28;20037;-70
2023/07/18 12:35:28;;;;;;;5.40;1.85;;;24.40;92.50;;;;;;5052134;28;20134;-69
2023/07/18 12:37:57;;;;;;;6.47;2.28;;;24.40;92.70;;;;;;5052134;28;20061;-70
2023/07/18 12:40:23;;;;;;;3.45;1.98;;;24.40;92.30;;;;;;5052170;28;20055;-72
2023/07/18 12:42:49;;;;;;;4.05;1.90;;;24.70;91.90;;;;;;5051976;28;20070;-70
2023/07/18 12:45:16;;;;;;;4.97;2.28;;;25.00;92.20;;;;;;5034938;28;20056;-70